sensor_id;sensor_type;location;lat;lon;timestamp;pressure;altitude;pressure_sealevel;temperature;humidity
67840;BME280;54636;51.684;5.142;2022-09-09T00:04:38;100780.09;;;13.61;100.00
67840;BME280;54636;51.684;5.142;2022-09-09T00:09:53;100791.75;;;13.62;100.00
67840;BME280;54636;51.684;5.142;2022-09-09T00:12:47;100797.47;;;13.58;100.00
67840;BME280;54636;51.684;5.142;2022-09-09T00:15:28;100793.25;;;13.51;100.00
67840;BME280;54636;51.684;5.142;2022-09-09T00:20:47;100776.69;;;13.33;100.00
67840;BME280;54636;51.684;5.142;2022-09-09T00:23:25;100789.06;;;13.45;100.00
67840;BME280;54636;51.684;5.142;2022-09-09T00:28:39;100779.41;;;13.38;100.00
67840;BME280;54636;51.684;5.142;2022-09-09T00:31:16;100767.28;;;13.28;100.00
67840;BME280;54636;51.684;5.142;2022-09-09T00:33:44;100776.44;;;13.36;100.00
67840;BME280;54636;51.684;5.142;2022-09-09T00:36:14;100772.22;;;13.35;100.00
67840;BME280;54636;51.684;5.142;2022-09-09T00:38:47;100769.75;;;13.32;100.00
67840;BME280;54636;51.684;5.142;2022-09-09T00:46:58;100768.75;;;13.29;100.00
67840;BME280;54636;51.684;5.142;2022-09-09T00:50:03;100755.88;;;13.24;100.00
67840;BME280;54636;51.684;5.142;2022-09-09T00:58:15;100759.59;;;13.15;100.00
67840;BME280;54636;51.684;5.142;2022-09-09T01:00:47;100736.34;;;12.98;100.00
67840;BME280;54636;51.684;5.142;2022-09-09T01:08:42;100762.34;;;13.04;100.00
67840;BME280;54636;51.684;5.142;2022-09-09T01:11:23;100762.09;;;13.02;100.00
67840;BME280;54636;51.684;5.142;2022-09-09T01:13:58;100740.31;;;12.85;100.00
67840;BME280;54636;51.684;5.142;2022-09-09T01:16:29;100740.06;;;12.83;100.00
67840;BME280;54636;51.684;5.142;2022-09-09T01:18:56;100750.22;;;12.89;100.00
67840;BME280;54636;51.684;5.142;2022-09-09T01:21:57;100759.13;;;13.00;100.00
67840;BME280;54636;51.684;5.142;2022-09-09T01:27:01;100702.69;;;12.56;100.00
67840;BME280;54636;51.684;5.142;2022-09-09T01:29:28;100753.69;;;12.89;100.00
67840;BME280;54636;51.684;5.142;2022-09-09T01:32:01;100746.03;;;12.88;100.00
67840;BME280;54636;51.684;5.142;2022-09-09T01:34:33;100749.00;;;12.90;100.00
67840;BME280;54636;51.684;5.142;2022-09-09T01:37:04;100736.09;;;12.84;100.00
67840;BME280;54636;51.684;5.142;2022-09-09T01:39:32;100734.63;;;12.83;100.00
67840;BME280;54636;51.684;5.142;2022-09-09T01:41:58;100715.81;;;12.69;100.00
67840;BME280;54636;51.684;5.142;2022-09-09T01:44:25;100741.06;;;12.86;100.00
67840;BME280;54636;51.684;5.142;2022-09-09T01:46:51;100742.06;;;12.83;100.00
67840;BME280;54636;51.684;5.142;2022-09-09T01:49:17;100731.16;;;12.83;100.00
67840;BME280;54636;51.684;5.142;2022-09-09T01:51:43;100716.31;;;12.67;100.00
67840;BME280;54636;51.684;5.142;2022-09-09T01:54:11;100720.25;;;12.77;100.00
67840;BME280;54636;51.684;5.142;2022-09-09T01:57:10;100726.69;;;12.80;100.00
67840;BME280;54636;51.684;5.142;2022-09-09T02:02:30;100709.38;;;12.66;100.00
67840;BME280;54636;51.684;5.142;2022-09-09T02:05:17;100714.06;;;12.66;100.00
67840;BME280;54636;51.684;5.142;2022-09-09T02:07:49;100725.22;;;12.73;100.00
67840;BME280;54636;51.684;5.142;2022-09-09T02:13:14;100707.63;;;12.63;100.00
67840;BME280;54636;51.684;5.142;2022-09-09T02:18:10;100703.66;;;12.59;100.00
67840;BME280;54636;51.684;5.142;2022-09-09T02:20:38;100712.59;;;12.65;100.00
67840;BME280;54636;51.684;5.142;2022-09-09T02:23:05;100713.81;;;12.64;100.00
67840;BME280;54636;51.684;5.142;2022-09-09T02:25:33;100718.03;;;12.65;100.00
67840;BME280;54636;51.684;5.142;2022-09-09T02:28:01;100712.59;;;12.59;100.00
67840;BME280;54636;51.684;5.142;2022-09-09T02:30:28;100698.97;;;12.48;100.00
67840;BME280;54636;51.684;5.142;2022-09-09T02:32:57;100713.81;;;12.58;100.00
67840;BME280;54636;51.684;5.142;2022-09-09T02:35:25;100716.31;;;12.56;100.00
67840;BME280;54636;51.684;5.142;2022-09-09T02:37:53;100716.31;;;12.56;100.00
67840;BME280;54636;51.684;5.142;2022-09-09T02:40:21;100706.41;;;12.53;100.00
67840;BME280;54636;51.684;5.142;2022-09-09T02:42:47;100661.34;;;12.30;100.00
67840;BME280;54636;51.684;5.142;2022-09-09T02:45:19;100697.47;;;12.52;100.00
67840;BME280;54636;51.684;5.142;2022-09-09T02:50:32;100699.47;;;12.52;100.00
67840;BME280;54636;51.684;5.142;2022-09-09T02:53:16;100696.25;;;12.53;100.00
67840;BME280;54636;51.684;5.142;2022-09-09T02:55:54;100681.63;;;12.40;100.00
67840;BME280;54636;51.684;5.142;2022-09-09T02:58:22;100703.66;;;12.47;100.00
67840;BME280;54636;51.684;5.142;2022-09-09T03:00:50;100712.34;;;12.51;100.00
67840;BME280;54636;51.684;5.142;2022-09-09T03:03:16;100712.59;;;12.48;100.00
67840;BME280;54636;51.684;5.142;2022-09-09T03:05:43;100711.09;;;12.47;100.00
67840;BME280;54636;51.684;5.142;2022-09-09T03:08:09;100709.63;;;12.46;100.00
67840;BME280;54636;51.684;5.142;2022-09-09T03:10:35;100712.34;;;12.46;100.00
67840;BME280;54636;51.684;5.142;2022-09-09T03:13:02;100686.88;;;12.32;100.00
67840;BME280;54636;51.684;5.142;2022-09-09T03:15:29;100695.75;;;12.38;100.00
67840;BME280;54636;51.684;5.142;2022-09-09T03:17:57;100707.38;;;12.44;100.00
67840;BME280;54636;51.684;5.142;2022-09-09T03:20:24;100711.09;;;12.41;100.00
67840;BME280;54636;51.684;5.142;2022-09-09T03:22:51;100720.50;;;12.46;100.00
67840;BME280;54636;51.684;5.142;2022-09-09T03:25:16;100720.50;;;12.46;100.00
67840;BME280;54636;51.684;5.142;2022-09-09T03:27:43;100721.75;;;12.45;100.00
67840;BME280;54636;51.684;5.142;2022-09-09T03:30:09;100717.03;;;12.45;100.00
67840;BME280;54636;51.684;5.142;2022-09-09T03:32:34;100707.13;;;12.42;100.00
67840;BME280;54636;51.684;5.142;2022-09-09T03:35:00;100708.13;;;12.45;100.00
67840;BME280;54636;51.684;5.142;2022-09-09T03:37:25;100714.56;;;12.47;100.00
67840;BME280;54636;51.684;5.142;2022-09-09T03:39:50;100708.13;;;12.45;100.00
67840;BME280;54636;51.684;5.142;2022-09-09T03:42:16;100692.53;;;12.40;100.00
67840;BME280;54636;51.684;5.142;2022-09-09T03:44:45;100705.66;;;12.47;100.00
67840;BME280;54636;51.684;5.142;2022-09-09T03:47:19;100687.81;;;12.46;100.00
67840;BME280;54636;51.684;5.142;2022-09-09T03:49:47;100684.34;;;12.40;100.00
67840;BME280;54636;51.684;5.142;2022-09-09T03:52:14;100698.97;;;12.48;100.00
67840;BME280;54636;51.684;5.142;2022-09-09T03:54:39;100686.09;;;12.37;100.00
67840;BME280;54636;51.684;5.142;2022-09-09T03:57:06;100677.91;;;12.37;100.00
67840;BME280;54636;51.684;5.142;2022-09-09T03:59:31;100696.25;;;12.48;100.00
67840;BME280;54636;51.684;5.142;2022-09-09T04:01:57;100699.22;;;12.50;100.00
67840;BME280;54636;51.684;5.142;2022-09-09T04:04:24;100700.22;;;12.52;100.00
67840;BME280;54636;51.684;5.142;2022-09-09T04:06:49;100698.97;;;12.48;100.00
67840;BME280;54636;51.684;5.142;2022-09-09T04:09:16;100701.94;;;12.50;100.00
67840;BME280;54636;51.684;5.142;2022-09-09T04:11:41;100700.47;;;12.49;100.00
67840;BME280;54636;51.684;5.142;2022-09-09T04:14:06;100710.59;;;12.48;100.00
67840;BME280;54636;51.684;5.142;2022-09-09T04:16:33;100700.69;;;12.45;100.00
67840;BME280;54636;51.684;5.142;2022-09-09T04:18:58;100705.91;;;12.49;100.00
67840;BME280;54636;51.684;5.142;2022-09-09T04:21:25;100697.22;;;12.45;100.00
67840;BME280;54636;51.684;5.142;2022-09-09T04:23:51;100692.53;;;12.40;100.00
67840;BME280;54636;51.684;5.142;2022-09-09T04:26:16;100695.50;;;12.42;100.00
67840;BME280;54636;51.684;5.142;2022-09-09T04:28:42;100697.00;;;12.43;100.00
67840;BME280;54636;51.684;5.142;2022-09-09T04:31:18;100703.44;;;12.40;100.00
67840;BME280;54636;51.684;5.142;2022-09-09T04:33:45;100694.50;;;12.45;100.00
67840;BME280;54636;51.684;5.142;2022-09-09T04:36:11;100698.22;;;12.42;100.00
67840;BME280;54636;51.684;5.142;2022-09-09T04:38:37;100689.81;;;12.40;100.00
67840;BME280;54636;51.684;5.142;2022-09-09T04:41:04;100699.72;;;12.37;100.00
67840;BME280;54636;51.684;5.142;2022-09-09T04:43:29;100675.22;;;12.32;100.00
67840;BME280;54636;51.684;5.142;2022-09-09T04:45:56;100682.41;;;12.35;100.00
67840;BME280;54636;51.684;5.142;2022-09-09T04:48:21;100673.25;;;12.27;100.00
67840;BME280;54636;51.684;5.142;2022-09-09T04:51:04;100684.88;;;12.33;100.00
67840;BME280;54636;51.684;5.142;2022-09-09T04:53:31;100686.38;;;12.34;100.00
67840;BME280;54636;51.684;5.142;2022-09-09T04:58:29;100688.06;;;12.42;100.00
67840;BME280;54636;51.684;5.142;2022-09-09T05:00:54;100679.66;;;12.46;100.00
67840;BME280;54636;51.684;5.142;2022-09-09T05:03:20;100674.19;;;12.51;100.00
67840;BME280;54636;51.684;5.142;2022-09-09T05:05:46;100678.41;;;12.52;100.00
67840;BME280;54636;51.684;5.142;2022-09-09T05:08:11;100680.38;;;12.63;100.00
67840;BME280;54636;51.684;5.142;2022-09-09T05:10:38;100655.13;;;12.57;100.00
67840;BME280;54636;51.684;5.142;2022-09-09T05:13:03;100664.78;;;12.64;100.00
67840;BME280;54636;51.684;5.142;2022-09-09T05:15:30;100655.13;;;12.57;100.00
67840;BME280;54636;51.684;5.142;2022-09-09T05:17:59;100652.41;;;12.63;100.00
67840;BME280;54636;51.684;5.142;2022-09-09T05:20:26;100661.06;;;12.61;100.00
67840;BME280;54636;51.684;5.142;2022-09-09T05:22:56;100660.56;;;12.57;100.00
67840;BME280;54636;51.684;5.142;2022-09-09T05:25:22;100661.81;;;12.62;100.00
67840;BME280;54636;51.684;5.142;2022-09-09T05:27:47;100669.47;;;12.63;100.00
67840;BME280;54636;51.684;5.142;2022-09-09T05:30:13;100652.41;;;12.57;100.00
67840;BME280;54636;51.684;5.142;2022-09-09T05:32:38;100668.47;;;12.72;100.00
67840;BME280;54636;51.684;5.142;2022-09-09T05:35:04;100676.38;;;12.86;100.00
67840;BME280;54636;51.684;5.142;2022-09-09T05:37:30;100666.97;;;12.88;100.00
67840;BME280;54636;51.684;5.142;2022-09-09T05:39:56;100674.88;;;12.97;100.00
67840;BME280;54636;51.684;5.142;2022-09-09T05:42:23;100661.50;;;12.99;100.00
67840;BME280;54636;51.684;5.142;2022-09-09T05:44:48;100668.59;;;13.13;100.00
67840;BME280;54636;51.684;5.142;2022-09-09T05:47:14;100673.09;;;13.16;100.00
67840;BME280;54636;51.684;5.142;2022-09-09T05:49:40;100675.06;;;13.21;100.00
67840;BME280;54636;51.684;5.142;2022-09-09T05:52:05;100663.16;;;13.18;100.00
67840;BME280;54636;51.684;5.142;2022-09-09T05:54:31;100676.53;;;13.22;100.00
67840;BME280;54636;51.684;5.142;2022-09-09T05:56:57;100668.84;;;13.21;100.00
67840;BME280;54636;51.684;5.142;2022-09-09T05:59:24;100680.25;;;13.25;100.00
67840;BME280;54636;51.684;5.142;2022-09-09T06:01:49;100680.47;;;13.32;100.00
67840;BME280;54636;51.684;5.142;2022-09-09T06:04:15;100667.09;;;13.29;100.00
67840;BME280;54636;51.684;5.142;2022-09-09T06:06:41;100674.97;;;13.43;100.00
67840;BME280;54636;51.684;5.142;2022-09-09T06:09:08;100679.13;;;13.56;100.00
67840;BME280;54636;51.684;5.142;2022-09-09T06:11:38;100681.78;;;13.67;100.00
67840;BME280;54636;51.684;5.142;2022-09-09T06:14:05;100691.91;;;13.72;100.00
67840;BME280;54636;51.684;5.142;2022-09-09T06:16:32;100686.94;;;13.76;100.00
67840;BME280;54636;51.684;5.142;2022-09-09T06:18:58;100679.75;;;13.73;100.00
67840;BME280;54636;51.684;5.142;2022-09-09T06:21:31;100679.50;;;13.76;100.00
67840;BME280;54636;51.684;5.142;2022-09-09T06:24:04;100680.19;;;13.82;100.00
67840;BME280;54636;51.684;5.142;2022-09-09T06:26:32;100684.63;;;13.91;100.00
67840;BME280;54636;51.684;5.142;2022-09-09T06:28:58;100687.31;;;13.97;100.00
67840;BME280;54636;51.684;5.142;2022-09-09T06:31:27;100657.13;;;13.83;100.00
67840;BME280;54636;51.684;5.142;2022-09-09T06:33:56;100683.28;;;14.03;100.00
67840;BME280;54636;51.684;5.142;2022-09-09T06:36:24;100680.69;;;14.22;100.00
67840;BME280;54636;51.684;5.142;2022-09-09T06:38:50;100670.34;;;14.39;100.00
67840;BME280;54636;51.684;5.142;2022-09-09T06:41:18;100665.53;;;14.51;100.00
67840;BME280;54636;51.684;5.142;2022-09-09T06:43:44;100648.69;;;14.71;100.00
67840;BME280;54636;51.684;5.142;2022-09-09T06:46:21;100663.31;;;14.98;100.00
67840;BME280;54636;51.684;5.142;2022-09-09T06:48:47;100671.63;;;15.11;100.00
67840;BME280;54636;51.684;5.142;2022-09-09T06:51:18;100675.63;;;15.29;100.00
67840;BME280;54636;51.684;5.142;2022-09-09T06:53:47;100668.75;;;15.23;100.00
67840;BME280;54636;51.684;5.142;2022-09-09T06:56:21;100667.06;;;15.38;100.00
67840;BME280;54636;51.684;5.142;2022-09-09T06:58:49;100673.28;;;15.39;100.00
67840;BME280;54636;51.684;5.142;2022-09-09T07:01:16;100654.25;;;15.28;100.00
67840;BME280;54636;51.684;5.142;2022-09-09T07:03:46;100678.16;;;15.46;100.00
67840;BME280;54636;51.684;5.142;2022-09-09T07:06:17;100666.41;;;15.51;100.00
67840;BME280;54636;51.684;5.142;2022-09-09T07:08:43;100667.44;;;15.67;100.00
67840;BME280;54636;51.684;5.142;2022-09-09T07:11:09;100663.06;;;15.77;100.00
67840;BME280;54636;51.684;5.142;2022-09-09T07:13:36;100674.75;;;15.96;100.00
67840;BME280;54636;51.684;5.142;2022-09-09T07:16:12;100667.41;;;16.04;100.00
67840;BME280;54636;51.684;5.142;2022-09-09T07:18:41;100670.56;;;16.08;100.00
67840;BME280;54636;51.684;5.142;2022-09-09T07:21:07;100671.44;;;16.17;100.00
67840;BME280;54636;51.684;5.142;2022-09-09T07:23:34;100675.47;;;16.29;100.00
67840;BME280;54636;51.684;5.142;2022-09-09T07:26:01;100681.28;;;16.38;100.00
67840;BME280;54636;51.684;5.142;2022-09-09T07:28:27;100677.44;;;16.60;100.00
67840;BME280;54636;51.684;5.142;2022-09-09T07:30:58;100669.13;;;16.66;100.00
67840;BME280;54636;51.684;5.142;2022-09-09T07:33:25;100678.00;;;16.72;100.00
67840;BME280;54636;51.684;5.142;2022-09-09T07:35:51;100667.56;;;16.70;100.00
67840;BME280;54636;51.684;5.142;2022-09-09T07:38:17;100676.22;;;16.74;100.00
67840;BME280;54636;51.684;5.142;2022-09-09T07:40:44;100679.06;;;16.82;100.00
67840;BME280;54636;51.684;5.142;2022-09-09T07:43:09;100670.72;;;16.74;99.90
67840;BME280;54636;51.684;5.142;2022-09-09T07:45:35;100684.34;;;16.80;100.00
67840;BME280;54636;51.684;5.142;2022-09-09T07:48:01;100684.56;;;16.82;98.08
67840;BME280;54636;51.684;5.142;2022-09-09T07:50:26;100686.97;;;16.72;99.63
67840;BME280;54636;51.684;5.142;2022-09-09T07:52:52;100667.78;;;16.86;99.33
67840;BME280;54636;51.684;5.142;2022-09-09T07:55:19;100669.63;;;17.17;97.53
67840;BME280;54636;51.684;5.142;2022-09-09T07:57:45;100664.97;;;17.25;96.98
67840;BME280;54636;51.684;5.142;2022-09-09T08:00:12;100677.03;;;17.22;94.50
67840;BME280;54636;51.684;5.142;2022-09-09T08:02:38;100672.59;;;17.19;96.57
67840;BME280;54636;51.684;5.142;2022-09-09T08:05:03;100673.97;;;17.26;94.52
67840;BME280;54636;51.684;5.142;2022-09-09T08:07:30;100682.00;;;17.24;95.04
67840;BME280;54636;51.684;5.142;2022-09-09T08:09:55;100687.25;;;17.22;95.28
67840;BME280;54636;51.684;5.142;2022-09-09T08:12:22;100666.69;;;17.15;94.57
67840;BME280;54636;51.684;5.142;2022-09-09T08:14:48;100677.56;;;17.07;94.64
67840;BME280;54636;51.684;5.142;2022-09-09T08:17:14;100684.31;;;17.06;93.38
67840;BME280;54636;51.684;5.142;2022-09-09T08:19:39;100681.69;;;17.01;93.63
67840;BME280;54636;51.684;5.142;2022-09-09T08:22:05;100689.69;;;17.12;93.87
67840;BME280;54636;51.684;5.142;2022-09-09T08:24:30;100681.03;;;17.21;93.38
67840;BME280;54636;51.684;5.142;2022-09-09T08:26:55;100696.00;;;17.33;92.50
67840;BME280;54636;51.684;5.142;2022-09-09T08:29:22;100680.41;;;17.28;90.47
67840;BME280;54636;51.684;5.142;2022-09-09T08:31:52;100698.34;;;17.29;92.64
67840;BME280;54636;51.684;5.142;2022-09-09T08:34:20;100672.81;;;17.21;91.73
67840;BME280;54636;51.684;5.142;2022-09-09T08:36:47;100695.38;;;17.27;91.28
67840;BME280;54636;51.684;5.142;2022-09-09T08:39:15;100696.56;;;17.19;91.35
67840;BME280;54636;51.684;5.142;2022-09-09T08:44:45;100698.78;;;17.07;93.49
67840;BME280;54636;51.684;5.142;2022-09-09T08:47:46;100701.00;;;17.08;92.57
67840;BME280;54636;51.684;5.142;2022-09-09T08:50:25;100710.19;;;17.11;91.96
67840;BME280;54636;51.684;5.142;2022-09-09T08:53:05;100708.50;;;17.08;92.04
67840;BME280;54636;51.684;5.142;2022-09-09T08:55:51;100714.81;;;17.16;92.07
67840;BME280;54636;51.684;5.142;2022-09-09T08:58:21;100716.09;;;17.28;90.45
67840;BME280;54636;51.684;5.142;2022-09-09T09:12:00;100720.09;;;17.88;89.11
67840;BME280;54636;51.684;5.142;2022-09-09T09:14:28;100721.44;;;17.94;87.98
67840;BME280;54636;51.684;5.142;2022-09-09T09:17:01;100709.75;;;17.81;87.64
67840;BME280;54636;51.684;5.142;2022-09-09T09:19:29;100721.69;;;17.83;86.25
67840;BME280;54636;51.684;5.142;2022-09-09T09:24:34;100724.34;;;17.62;88.20
67840;BME280;54636;51.684;5.142;2022-09-09T09:27:12;100722.00;;;17.32;87.48
67840;BME280;54636;51.684;5.142;2022-09-09T09:29:39;100724.84;;;17.27;88.68
67840;BME280;54636;51.684;5.142;2022-09-09T09:32:07;100712.81;;;17.17;89.83
67840;BME280;54636;51.684;5.142;2022-09-09T09:34:37;100718.94;;;16.96;90.38
67840;BME280;54636;51.684;5.142;2022-09-09T09:37:14;100726.41;;;16.96;90.67
67840;BME280;54636;51.684;5.142;2022-09-09T09:39:43;100731.16;;;16.95;90.29
67840;BME280;54636;51.684;5.142;2022-09-09T09:42:13;100719.56;;;16.76;91.22
67840;BME280;54636;51.684;5.142;2022-09-09T09:44:40;100724.19;;;16.68;91.83
67840;BME280;54636;51.684;5.142;2022-09-09T09:47:08;100740.97;;;16.64;94.36
67840;BME280;54636;51.684;5.142;2022-09-09T09:49:34;100723.06;;;16.44;96.01
67840;BME280;54636;51.684;5.142;2022-09-09T09:52:17;100734.53;;;16.43;98.96
67840;BME280;54636;51.684;5.142;2022-09-09T09:54:46;100733.53;;;16.27;99.56
67840;BME280;54636;51.684;5.142;2022-09-09T09:57:13;100728.56;;;16.26;100.00
67840;BME280;54636;51.684;5.142;2022-09-09T09:59:40;100726.72;;;16.34;100.00
67840;BME280;54636;51.684;5.142;2022-09-09T10:02:17;100728.34;;;16.56;100.00
67840;BME280;54636;51.684;5.142;2022-09-09T10:04:43;100723.78;;;16.90;98.72
67840;BME280;54636;51.684;5.142;2022-09-09T10:07:18;100726.00;;;17.18;98.56
67840;BME280;54636;51.684;5.142;2022-09-09T10:09:44;100722.81;;;17.54;96.32
67840;BME280;54636;51.684;5.142;2022-09-09T10:12:50;100724.19;;;17.94;94.49
67840;BME280;54636;51.684;5.142;2022-09-09T10:23:51;100719.13;;;18.19;92.22
67840;BME280;54636;51.684;5.142;2022-09-09T10:34:05;100728.13;;;18.61;90.56
67840;BME280;54636;51.684;5.142;2022-09-09T10:36:40;100719.38;;;18.70;87.56
67840;BME280;54636;51.684;5.142;2022-09-09T10:42:06;100723.91;;;18.89;88.99
67840;BME280;54636;51.684;5.142;2022-09-09T10:47:28;100719.25;;;18.76;86.85
67840;BME280;54636;51.684;5.142;2022-09-09T10:52:55;100716.56;;;18.42;87.81
67840;BME280;54636;51.684;5.142;2022-09-09T10:55:42;100719.66;;;18.18;88.88
67840;BME280;54636;51.684;5.142;2022-09-09T10:58:17;100717.50;;;18.03;91.07
67840;BME280;54636;51.684;5.142;2022-09-09T11:00:52;100723.78;;;17.90;91.88
67840;BME280;54636;51.684;5.142;2022-09-09T11:03:26;100716.53;;;17.80;93.03
67840;BME280;54636;51.684;5.142;2022-09-09T11:06:01;100717.78;;;17.78;90.67
67840;BME280;54636;51.684;5.142;2022-09-09T11:08:31;100718.97;;;17.57;92.29
67840;BME280;54636;51.684;5.142;2022-09-09T11:11:11;100724.19;;;17.47;93.47
67840;BME280;54636;51.684;5.142;2022-09-09T11:19:03;100721.78;;;17.43;95.95
67840;BME280;54636;51.684;5.142;2022-09-09T11:21:34;100734.13;;;17.37;98.50
67840;BME280;54636;51.684;5.142;2022-09-09T11:24:15;100723.34;;;17.39;98.10
67840;BME280;54636;51.684;5.142;2022-09-09T11:40:44;100727.84;;;17.63;94.55
67840;BME280;54636;51.684;5.142;2022-09-09T11:43:17;100727.31;;;17.77;95.21
67840;BME280;54636;51.684;5.142;2022-09-09T11:45:55;100722.19;;;17.95;95.20
67840;BME280;54636;51.684;5.142;2022-09-09T11:53:59;100719.72;;;18.46;92.72
67840;BME280;54636;51.684;5.142;2022-09-09T11:56:42;100725.00;;;18.44;92.37
67840;BME280;54636;51.684;5.142;2022-09-09T11:59:29;100726.56;;;18.73;90.55
67840;BME280;54636;51.684;5.142;2022-09-09T12:02:02;100715.41;;;18.79;90.22
67840;BME280;54636;51.684;5.142;2022-09-09T12:07:21;100719.06;;;18.74;90.38
67840;BME280;54636;51.684;5.142;2022-09-09T12:09:52;100716.38;;;18.89;92.49
67840;BME280;54636;51.684;5.142;2022-09-09T12:14:59;100709.53;;;19.11;88.92
67840;BME280;54636;51.684;5.142;2022-09-09T12:17:28;100717.06;;;19.11;87.12
67840;BME280;54636;51.684;5.142;2022-09-09T12:20:08;100714.66;;;19.07;88.80
67840;BME280;54636;51.684;5.142;2022-09-09T12:22:57;100710.28;;;19.12;87.80
67840;BME280;54636;51.684;5.142;2022-09-09T12:31:25;100713.53;;;19.02;87.11
67840;BME280;54636;51.684;5.142;2022-09-09T12:33:53;100719.56;;;19.01;85.50
67840;BME280;54636;51.684;5.142;2022-09-09T12:36:27;100709.94;;;18.87;89.06
67840;BME280;54636;51.684;5.142;2022-09-09T12:38:55;100712.75;;;18.94;86.52
67840;BME280;54636;51.684;5.142;2022-09-09T12:41:27;100706.19;;;19.05;86.19
67840;BME280;54636;51.684;5.142;2022-09-09T12:44:09;100704.25;;;19.21;86.79
67840;BME280;54636;51.684;5.142;2022-09-09T12:46:43;100706.16;;;19.33;85.35
67840;BME280;54636;51.684;5.142;2022-09-09T12:49:34;100707.34;;;19.53;85.64
67840;BME280;54636;51.684;5.142;2022-09-09T12:52:19;100708.31;;;19.63;83.87
67840;BME280;54636;51.684;5.142;2022-09-09T12:54:48;100708.31;;;19.71;84.68
67840;BME280;54636;51.684;5.142;2022-09-09T12:57:16;100712.41;;;19.78;83.60
67840;BME280;54636;51.684;5.142;2022-09-09T12:59:43;100700.41;;;19.67;83.35
67840;BME280;54636;51.684;5.142;2022-09-09T13:02:25;100694.09;;;19.44;83.92
67840;BME280;54636;51.684;5.142;2022-09-09T13:04:51;100705.66;;;19.06;85.25
67840;BME280;54636;51.684;5.142;2022-09-09T13:07:18;100697.81;;;18.82;87.69
67840;BME280;54636;51.684;5.142;2022-09-09T13:09:46;100694.88;;;18.80;89.07
67840;BME280;54636;51.684;5.142;2022-09-09T13:12:17;100699.66;;;18.80;86.81
67840;BME280;54636;51.684;5.142;2022-09-09T13:14:46;100696.34;;;18.81;87.39
67840;BME280;54636;51.684;5.142;2022-09-09T13:17:21;100711.88;;;18.71;88.24
67840;BME280;54636;51.684;5.142;2022-09-09T13:19:47;100698.19;;;18.58;86.38
67840;BME280;54636;51.684;5.142;2022-09-09T13:22:34;100703.88;;;18.39;88.78
67840;BME280;54636;51.684;5.142;2022-09-09T13:25:00;100699.13;;;18.39;89.36
67840;BME280;54636;51.684;5.142;2022-09-09T13:27:32;100703.41;;;18.48;88.93
67840;BME280;54636;51.684;5.142;2022-09-09T13:30:00;100702.75;;;18.55;86.86
67840;BME280;54636;51.684;5.142;2022-09-09T13:32:26;100697.38;;;18.50;87.43
67840;BME280;54636;51.684;5.142;2022-09-09T13:34:55;100693.00;;;18.54;86.24
67840;BME280;54636;51.684;5.142;2022-09-09T13:37:26;100693.16;;;18.69;86.68
67840;BME280;54636;51.684;5.142;2022-09-09T13:39:55;100693.88;;;18.98;86.67
67840;BME280;54636;51.684;5.142;2022-09-09T13:42:26;100691.97;;;19.22;86.21
67840;BME280;54636;51.684;5.142;2022-09-09T13:44:56;100684.84;;;19.26;85.86
67840;BME280;54636;51.684;5.142;2022-09-09T13:47:29;100684.63;;;19.24;82.68
67840;BME280;54636;51.684;5.142;2022-09-09T13:49:56;100671.97;;;19.21;86.05
67840;BME280;54636;51.684;5.142;2022-09-09T13:52:21;100679.44;;;19.13;84.14
67840;BME280;54636;51.684;5.142;2022-09-09T13:54:51;100684.25;;;19.20;83.39
67840;BME280;54636;51.684;5.142;2022-09-09T13:57:20;100681.59;;;19.43;80.80
67840;BME280;54636;51.684;5.142;2022-09-09T13:59:46;100689.56;;;19.62;79.25
67840;BME280;54636;51.684;5.142;2022-09-09T14:02:13;100684.03;;;19.54;79.78
67840;BME280;54636;51.684;5.142;2022-09-09T14:04:38;100679.78;;;19.46;79.53
67840;BME280;54636;51.684;5.142;2022-09-09T14:07:09;100679.00;;;19.37;82.14
67840;BME280;54636;51.684;5.142;2022-09-09T14:09:36;100686.34;;;19.35;80.77
67840;BME280;54636;51.684;5.142;2022-09-09T14:12:01;100674.16;;;19.23;81.65
67840;BME280;54636;51.684;5.142;2022-09-09T14:14:27;100685.00;;;19.21;79.91
67840;BME280;54636;51.684;5.142;2022-09-09T14:16:53;100684.13;;;19.33;78.93
67840;BME280;54636;51.684;5.142;2022-09-09T14:19:18;100683.03;;;19.36;78.53
67840;BME280;54636;51.684;5.142;2022-09-09T14:21:44;100687.31;;;19.45;80.45
67840;BME280;54636;51.684;5.142;2022-09-09T14:24:09;100682.56;;;19.61;79.29
67840;BME280;54636;51.684;5.142;2022-09-09T14:26:34;100684.66;;;19.83;80.05
67840;BME280;54636;51.684;5.142;2022-09-09T14:29:00;100679.91;;;19.99;77.64
67840;BME280;54636;51.684;5.142;2022-09-09T14:31:26;100682.13;;;20.08;78.42
67840;BME280;54636;51.684;5.142;2022-09-09T14:33:52;100683.59;;;20.17;77.72
67840;BME280;54636;51.684;5.142;2022-09-09T14:36:18;100678.81;;;20.10;75.44
67840;BME280;54636;51.684;5.142;2022-09-09T14:38:43;100688.53;;;19.88;73.41
67840;BME280;54636;51.684;5.142;2022-09-09T14:41:11;100694.16;;;19.67;75.29
67840;BME280;54636;51.684;5.142;2022-09-09T14:43:40;100693.38;;;19.51;76.65
67840;BME280;54636;51.684;5.142;2022-09-09T14:46:07;100699.03;;;19.38;76.51
67840;BME280;54636;51.684;5.142;2022-09-09T14:48:33;100703.34;;;19.18;77.52
67840;BME280;54636;51.684;5.142;2022-09-09T14:51:08;100697.25;;;19.12;76.82
67840;BME280;54636;51.684;5.142;2022-09-09T14:53:33;100705.03;;;18.93;77.81
67840;BME280;54636;51.684;5.142;2022-09-09T14:56:10;100708.28;;;18.84;76.53
67840;BME280;54636;51.684;5.142;2022-09-09T14:58:37;100714.13;;;18.59;76.59
67840;BME280;54636;51.684;5.142;2022-09-09T15:01:11;100713.00;;;18.55;78.45